Time;durP1;ratioP1;P1;durP2;ratioP2;P2;SDS_P1;SDS_P2;PMS_P1;PMS_P2;Temp;Humidity;BMP_temperature;BMP_pressure;BME280_temperature;BME280_humidity;BME280_pressure;Samples;Min_cycle;Max_cycle;Signal;HPM_P1;HPM_P2
2022/06/04 00:01:33;;;;;;;14.15;6.00;;;;;;;;;;5017921;28;20140;-72
2022/06/04 00:03:59;;;;;;;7.95;6.00;;;;;;;;;;5052068;28;20049;-72
2022/06/04 00:06:25;;;;;;;7.50;6.40;;;;;;;;;;5051705;28;20083;-71
2022/06/04 00:08:51;;;;;;;7.13;6.13;;;;;;;;;;5051919;28;20123;-71
2022/06/04 00:16:46;;;;;;;12.32;5.82;;;;;;;;;;5051877;28;20064;-71
2022/06/04 00:19:12;;;;;;;10.18;5.47;;;;;;;;;;5051505;28;20465;-75
2022/06/04 00:21:38;;;;;;;7.30;5.72;;;;;;;;;;5051603;28;20094;-72
2022/06/04 00:24:05;;;;;;;5.82;5.18;;;;;;;;;;5051319;28;20390;-71
2022/06/04 00:26:31;;;;;;;6.10;5.57;;;;;;;;;;5051401;28;20044;-71
2022/06/04 00:28:56;;;;;;;9.18;5.28;;;;;;;;;;5033554;28;20052;-71
2022/06/04 00:31:22;;;;;;;7.78;5.32;;;;;;;;;;5033433;28;20123;-72
2022/06/04 00:33:48;;;;;;;8.45;4.95;;;;;;;;;;5051605;28;20040;-71
2022/06/04 00:36:14;;;;;;;11.35;5.50;;;;;;;;;;5050275;28;20056;-71
2022/06/04 00:38:40;;;;;;;10.20;5.35;;;;;;;;;;5051393;28;20571;-72
2022/06/04 00:41:09;;;;;;;9.25;5.28;;;;;;;;;;5051274;28;20416;-71
2022/06/04 00:43:55;;;;;;;10.25;5.45;;;;;;;;;;5051254;28;20079;-71
2022/06/04 00:46:30;;;;;;;8.90;5.55;;;;;;;;;;5016694;28;20032;-71
2022/06/04 00:48:56;;;;;;;7.03;5.57;;;;;;;;;;5051240;28;20041;-70
2022/06/04 00:51:23;;;;;;;8.85;4.88;;;;;;;;;;5050834;28;20583;-71
2022/06/04 00:53:49;;;;;;;7.20;5.13;;;;;;;;;;5050941;28;20489;-71
2022/06/04 00:56:19;;;;;;;8.30;5.28;;;;;;;;;;5050724;28;20147;-71
2022/06/04 00:58:51;;;;;;;6.32;5.38;;;;;;;;;;5016628;28;20037;-71
2022/06/04 01:01:21;;;;;;;6.45;5.00;;;;;;;;;;5050722;28;20491;-73
2022/06/04 01:04:02;;;;;;;8.60;5.80;;;;;;;;;;5016652;28;20095;-71
2022/06/04 01:06:47;;;;;;;8.52;5.43;;;;;;;;;;5033238;28;20503;-70
2022/06/04 01:09:18;;;;;;;9.40;5.22;;;;;;;;;;5050480;28;20048;-71
2022/06/04 01:12:11;;;;;;;9.70;5.47;;;;;;;;;;5050857;28;20048;-71
2022/06/04 01:14:49;;;;;;;13.13;5.70;;;;;;;;;;5033010;28;20043;-71
2022/06/04 01:17:16;;;;;;;8.60;5.28;;;;;;;;;;5050354;28;20069;-73
2022/06/04 01:19:48;;;;;;;7.82;5.22;;;;;;;;;;5032959;28;20040;-70
2022/06/04 01:22:17;;;;;;;4.90;4.50;;;;;;;;;;5050697;28;20037;-71
2022/06/04 01:24:49;;;;;;;5.68;4.35;;;;;;;;;;5032827;28;20583;-72
2022/06/04 01:27:26;;;;;;;5.85;4.70;;;;;;;;;;5050318;28;20513;-71
2022/06/04 01:30:03;;;;;;;7.20;4.40;;;;;;;;;;5050482;28;20504;-71
2022/06/04 01:32:31;;;;;;;5.10;4.60;;;;;;;;;;5032258;28;20049;-72
2022/06/04 01:35:20;;;;;;;4.93;4.53;;;;;;;;;;5016213;28;20118;-72
2022/06/04 01:38:06;;;;;;;6.82;4.63;;;;;;;;;;5044558;28;20048;-72
2022/06/04 01:43:18;;;;;;;5.07;4.57;;;;;;;;;;5049761;28;20045;-70
2022/06/04 01:45:44;;;;;;;9.60;4.50;;;;;;;;;;5032496;28;20174;-70
2022/06/04 01:48:10;;;;;;;4.80;4.45;;;;;;;;;;5031958;28;20102;-71
2022/06/04 01:50:38;;;;;;;5.15;4.65;;;;;;;;;;5032349;28;20448;-71
2022/06/04 01:53:04;;;;;;;5.65;5.13;;;;;;;;;;5032260;28;20041;-71
2022/06/04 01:55:34;;;;;;;9.75;4.53;;;;;;;;;;5032009;28;20139;-72
2022/06/04 01:58:03;;;;;;;5.78;4.65;;;;;;;;;;5049913;28;20045;-71
2022/06/04 02:00:36;;;;;;;5.00;4.45;;;;;;;;;;5049617;28;20072;-70
2022/06/04 02:03:05;;;;;;;7.35;5.07;;;;;;;;;;5049900;28;20047;-72
2022/06/04 02:05:37;;;;;;;7.47;4.60;;;;;;;;;;5031820;28;20040;-71
2022/06/04 02:08:04;;;;;;;7.40;4.88;;;;;;;;;;5032108;28;20053;-71
2022/06/04 02:10:30;;;;;;;5.13;4.63;;;;;;;;;;5049518;28;20068;-72
2022/06/04 02:12:58;;;;;;;6.03;4.47;;;;;;;;;;5031565;28;20517;-71
2022/06/04 02:15:25;;;;;;;12.85;5.18;;;;;;;;;;5049193;28;20140;-71
2022/06/04 02:17:56;;;;;;;7.45;5.15;;;;;;;;;;5031663;28;20662;-71
2022/06/04 02:20:23;;;;;;;6.13;4.70;;;;;;;;;;5049323;28;20442;-71
2022/06/04 02:22:49;;;;;;;6.88;4.57;;;;;;;;;;5031825;28;20040;-71
2022/06/04 02:25:15;;;;;;;8.20;4.60;;;;;;;;;;5049167;28;20052;-72
2022/06/04 02:27:41;;;;;;;10.52;4.80;;;;;;;;;;5049332;28;20102;-70
2022/06/04 02:30:08;;;;;;;6.10;4.78;;;;;;;;;;5049416;28;20053;-71
2022/06/04 02:32:43;;;;;;;6.97;4.75;;;;;;;;;;5031534;28;20576;-71
2022/06/04 02:35:15;;;;;;;8.30;4.85;;;;;;;;;;5015150;28;20036;-73
2022/06/04 02:37:45;;;;;;;7.65;4.30;;;;;;;;;;5031409;28;20445;-72
2022/06/04 02:40:22;;;;;;;6.13;4.75;;;;;;;;;;5031399;28;20033;-72
2022/06/04 02:43:04;;;;;;;12.32;4.35;;;;;;;;;;5031448;28;20076;-70
2022/06/04 02:45:32;;;;;;;6.05;4.82;;;;;;;;;;5048987;28;20049;-72
2022/06/04 02:48:18;;;;;;;9.20;4.53;;;;;;;;;;5049095;28;20052;-69
2022/06/04 02:50:48;;;;;;;6.70;4.03;;;;;;;;;;5048897;28;20540;-71
2022/06/04 02:53:15;;;;;;;6.05;4.20;;;;;;;;;;5014297;28;20044;-72
2022/06/04 02:56:01;;;;;;;11.93;4.10;;;;;;;;;;5014785;28;20059;-71
2022/06/04 02:58:27;;;;;;;4.95;4.38;;;;;;;;;;5048439;28;20047;-70
2022/06/04 03:00:54;;;;;;;7.93;4.13;;;;;;;;;;5052316;28;20053;-71
2022/06/04 03:03:20;;;;;;;8.60;4.15;;;;;;;;;;5052920;28;20459;-70
2022/06/04 03:05:55;;;;;;;11.10;4.22;;;;;;;;;;5053251;28;20114;-70
2022/06/04 03:08:21;;;;;;;7.15;4.40;;;;;;;;;;5052669;28;20045;-70
2022/06/04 03:10:47;;;;;;;6.88;3.50;;;;;;;;;;5035173;28;20048;-70
2022/06/04 03:13:13;;;;;;;5.57;4.10;;;;;;;;;;5018063;28;20072;-70
2022/06/04 03:15:39;;;;;;;4.75;4.22;;;;;;;;;;5035212;28;20095;-71
2022/06/04 03:18:05;;;;;;;4.75;3.80;;;;;;;;;;5053036;28;20421;-72
2022/06/04 03:20:31;;;;;;;9.18;3.63;;;;;;;;;;5034919;28;20667;-71
2022/06/04 03:22:57;;;;;;;5.47;3.60;;;;;;;;;;5035805;28;20650;-71
2022/06/04 03:25:23;;;;;;;4.38;3.42;;;;;;;;;;5053191;28;20123;-71
2022/06/04 03:27:53;;;;;;;5.00;3.40;;;;;;;;;;5053039;28;20039;-71
2022/06/04 03:30:19;;;;;;;5.22;3.60;;;;;;;;;;5052342;28;20049;-72
2022/06/04 03:32:45;;;;;;;10.45;4.07;;;;;;;;;;5052707;28;20508;-71
2022/06/04 03:35:11;;;;;;;4.38;4.07;;;;;;;;;;5034512;28;20044;-71
2022/06/04 03:37:37;;;;;;;4.78;4.07;;;;;;;;;;5052271;28;20156;-71
2022/06/04 03:40:03;;;;;;;5.60;3.60;;;;;;;;;;5034621;28;20060;-70
2022/06/04 03:42:29;;;;;;;6.95;3.70;;;;;;;;;;5052127;28;20051;-72
2022/06/04 03:44:55;;;;;;;11.15;4.18;;;;;;;;;;5052345;28;20045;-72
2022/06/04 03:47:21;;;;;;;5.93;4.25;;;;;;;;;;5052189;28;20041;-71
2022/06/04 03:49:47;;;;;;;7.95;3.30;;;;;;;;;;5034387;28;20063;-71
2022/06/04 03:52:13;;;;;;;9.98;3.53;;;;;;;;;;5034271;28;20041;-71
2022/06/04 03:54:55;;;;;;;7.85;4.00;;;;;;;;;;5052175;28;20053;-71
2022/06/04 04:00:12;;;;;;;6.28;2.65;;;;;;;;;;5052367;28;20044;-71
2022/06/04 04:02:39;;;;;;;2.80;2.60;;;;;;;;;;5052014;28;20417;-71
2022/06/04 04:05:05;;;;;;;9.43;3.00;;;;;;;;;;5034125;28;20044;-71
2022/06/04 04:07:31;;;;;;;9.07;3.10;;;;;;;;;;5051744;28;20037;-71
2022/06/04 04:09:57;;;;;;;4.75;2.97;;;;;;;;;;5051961;28;20045;-70
2022/06/04 04:12:23;;;;;;;3.10;2.90;;;;;;;;;;5050224;28;20049;-71
2022/06/04 04:14:49;;;;;;;4.68;3.08;;;;;;;;;;5033926;28;20112;-72
2022/06/04 04:17:15;;;;;;;5.47;3.10;;;;;;;;;;5051896;28;20049;-72
2022/06/04 04:19:41;;;;;;;4.15;2.40;;;;;;;;;;5051816;28;20501;-71
2022/06/04 04:22:07;;;;;;;4.25;3.00;;;;;;;;;;5017572;28;20041;-73
2022/06/04 04:24:33;;;;;;;3.25;2.95;;;;;;;;;;5033471;28;20049;-70
2022/06/04 04:26:59;;;;;;;6.32;2.95;;;;;;;;;;5051636;28;20041;-71
2022/06/04 04:29:25;;;;;;;2.88;2.75;;;;;;;;;;5051237;28;20053;-71
2022/06/04 04:31:51;;;;;;;4.55;3.10;;;;;;;;;;5051720;28;20036;-71
2022/06/04 04:34:17;;;;;;;2.78;2.53;;;;;;;;;;5017061;28;20065;-71
2022/06/04 04:36:45;;;;;;;3.42;3.10;;;;;;;;;;5051527;28;20163;-72
2022/06/04 04:39:11;;;;;;;5.05;2.85;;;;;;;;;;5033433;28;20455;-71
2022/06/04 04:41:37;;;;;;;5.07;2.88;;;;;;;;;;5051163;28;20049;-74
2022/06/04 04:44:03;;;;;;;9.07;2.88;;;;;;;;;;5051332;28;20033;-69
2022/06/04 04:46:29;;;;;;;3.13;2.75;;;;;;;;;;5051127;28;20523;-71
2022/06/04 04:48:55;;;;;;;4.57;2.70;;;;;;;;;;5051249;28;20037;-71
2022/06/04 04:51:21;;;;;;;4.80;2.60;;;;;;;;;;5050948;28;20127;-72
2022/06/04 04:53:47;;;;;;;4.55;2.70;;;;;;;;;;5051048;28;20041;-73
2022/06/04 04:56:13;;;;;;;10.68;3.17;;;;;;;;;;5016936;28;20594;-71
2022/06/04 04:58:39;;;;;;;3.13;2.92;;;;;;;;;;5033125;28;20537;-71
2022/06/04 05:01:06;;;;;;;6.38;3.45;;;;;;;;;;5051144;28;20082;-72
2022/06/04 05:03:31;;;;;;;11.70;3.55;;;;;;;;;;5032884;28;20108;-73
2022/06/04 05:06:01;;;;;;;3.67;3.38;;;;;;;;;;5033142;28;20052;-73
2022/06/04 05:08:27;;;;;;;9.07;2.97;;;;;;;;;;5000127;28;20048;-72
2022/06/04 05:10:53;;;;;;;3.25;2.60;;;;;;;;;;5033388;28;20099;-72
2022/06/04 05:13:19;;;;;;;2.28;2.17;;;;;;;;;;5050236;28;20464;-71
2022/06/04 05:15:45;;;;;;;2.90;2.70;;;;;;;;;;5032987;28;20463;-71
2022/06/04 05:18:12;;;;;;;3.90;2.63;;;;;;;;;;5050725;28;20128;-73
2022/06/04 05:20:38;;;;;;;2.88;2.50;;;;;;;;;;5050582;28;20029;-72
2022/06/04 05:23:04;;;;;;;3.70;2.58;;;;;;;;;;5050432;28;20115;-72
2022/06/04 05:25:29;;;;;;;2.70;2.50;;;;;;;;;;5050009;28;20045;-71
2022/06/04 05:27:55;;;;;;;2.42;2.33;;;;;;;;;;5016107;28;20044;-72
2022/06/04 05:30:22;;;;;;;5.00;2.75;;;;;;;;;;5050052;28;20120;-74
2022/06/04 05:32:48;;;;;;;2.50;2.35;;;;;;;;;;5050598;28;20509;-73
2022/06/04 05:35:14;;;;;;;8.13;2.85;;;;;;;;;;5032458;28;20052;-71
2022/06/04 05:37:40;;;;;;;4.65;2.83;;;;;;;;;;5050254;28;20553;-72
2022/06/04 05:40:06;;;;;;;4.07;2.90;;;;;;;;;;5050242;28;20045;-71
2022/06/04 05:42:32;;;;;;;2.78;2.58;;;;;;;;;;5032317;28;20128;-72
2022/06/04 05:44:59;;;;;;;4.32;2.80;;;;;;;;;;5050222;28;20136;-71
2022/06/04 05:47:26;;;;;;;3.60;2.70;;;;;;;;;;5050108;28;20495;-71
2022/06/04 05:49:52;;;;;;;5.43;2.30;;;;;;;;;;5050105;28;20460;-72
2022/06/04 05:52:18;;;;;;;2.83;2.60;;;;;;;;;;5049920;28;20106;-71
2022/06/04 05:54:44;;;;;;;6.40;3.00;;;;;;;;;;5049831;28;20041;-72
2022/06/04 05:57:10;;;;;;;2.78;2.58;;;;;;;;;;5050004;28;20045;-72
2022/06/04 05:59:36;;;;;;;8.38;2.88;;;;;;;;;;5049883;28;20048;-73
2022/06/04 06:02:02;;;;;;;7.80;2.47;;;;;;;;;;5049995;28;20041;-72
2022/06/04 06:04:28;;;;;;;5.72;3.03;;;;;;;;;;5049557;28;20501;-72
2022/06/04 06:06:58;;;;;;;6.28;2.72;;;;;;;;;;5049950;28;20045;-72
2022/06/04 06:09:23;;;;;;;4.15;2.55;;;;;;;;;;5032406;28;20049;-72
2022/06/04 06:11:50;;;;;;;2.40;2.20;;;;;;;;;;5032071;28;20048;-73
2022/06/04 06:14:16;;;;;;;4.97;2.40;;;;;;;;;;5031922;28;20041;-71
2022/06/04 06:16:43;;;;;;;4.40;2.40;;;;;;;;;;5031777;28;20048;-71
2022/06/04 06:19:09;;;;;;;3.72;2.03;;;;;;;;;;5047453;28;20069;-73
2022/06/04 06:21:35;;;;;;;4.10;2.30;;;;;;;;;;5083336;28;20051;-73
2022/06/04 06:24:01;;;;;;;3.60;2.10;;;;;;;;;;5088679;28;20516;-72
2022/06/04 06:26:31;;;;;;;5.07;2.08;;;;;;;;;;5088198;28;20040;-73
2022/06/04 06:28:59;;;;;;;2.45;2.22;;;;;;;;;;5089755;28;20040;-72
2022/06/04 06:31:26;;;;;;;2.35;1.83;;;;;;;;;;5089643;28;20043;-72
2022/06/04 06:33:52;;;;;;;2.10;2.00;;;;;;;;;;5087951;28;20488;-71
2022/06/04 06:36:19;;;;;;;3.10;2.00;;;;;;;;;;5088136;28;20105;-72
2022/06/04 06:38:45;;;;;;;2.85;2.17;;;;;;;;;;5071288;28;20048;-72
2022/06/04 06:41:12;;;;;;;2.33;2.03;;;;;;;;;;5089856;28;20036;-73
2022/06/04 06:43:38;;;;;;;6.57;2.05;;;;;;;;;;5088334;28;20526;-73
2022/06/04 06:46:04;;;;;;;3.38;1.98;;;;;;;;;;5090029;28;20098;-73
2022/06/04 06:48:30;;;;;;;2.35;2.20;;;;;;;;;;5089464;28;20036;-74
2022/06/04 06:50:56;;;;;;;2.40;2.20;;;;;;;;;;5089620;28;20116;-70
2022/06/04 06:53:22;;;;;;;2.03;1.80;;;;;;;;;;5089579;28;20149;-72
2022/06/04 06:55:48;;;;;;;2.60;2.05;;;;;;;;;;5089226;28;20056;-72
2022/06/04 06:58:14;;;;;;;2.20;1.90;;;;;;;;;;5089649;28;20044;-72
2022/06/04 07:00:40;;;;;;;2.10;2.00;;;;;;;;;;5087930;28;20101;-72
2022/06/04 07:03:06;;;;;;;2.00;1.90;;;;;;;;;;5088492;28;20043;-72
2022/06/04 07:05:32;;;;;;;2.85;2.20;;;;;;;;;;5087854;28;20035;-72
2022/06/04 07:07:58;;;;;;;2.20;2.10;;;;;;;;;;5089504;28;20048;-73
2022/06/04 07:10:24;;;;;;;2.47;2.30;;;;;;;;;;5089090;28;20044;-72
2022/06/04 07:12:50;;;;;;;4.20;2.30;;;;;;;;;;5089028;28;20472;-74
2022/06/04 07:15:16;;;;;;;3.97;2.00;;;;;;;;;;5087952;28;20047;-73
2022/06/04 07:17:42;;;;;;;4.60;2.20;;;;;;;;;;5089128;28;20104;-72
2022/06/04 07:20:08;;;;;;;3.10;2.10;;;;;;;;;;5089060;28;20047;-73
2022/06/04 07:22:34;;;;;;;2.40;2.20;;;;;;;;;;5088995;28;20044;-72
2022/06/04 07:25:00;;;;;;;2.55;2.17;;;;;;;;;;5089185;28;20047;-72
2022/06/04 07:27:26;;;;;;;2.20;2.10;;;;;;;;;;5085449;28;20040;-72
2022/06/04 07:29:52;;;;;;;6.25;2.35;;;;;;;;;;5087533;28;20086;-72
2022/06/04 07:32:18;;;;;;;2.97;2.47;;;;;;;;;;5086857;28;20044;-71
2022/06/04 07:34:43;;;;;;;2.38;2.17;;;;;;;;;;5087222;28;20496;-71
2022/06/04 07:37:09;;;;;;;5.45;2.33;;;;;;;;;;5087192;28;20516;-72
2022/06/04 07:39:36;;;;;;;2.97;2.25;;;;;;;;;;5076025;28;20036;-72
2022/06/04 07:42:02;;;;;;;4.68;2.10;;;;;;;;;;5086945;28;20067;-72
2022/06/04 07:44:28;;;;;;;2.15;2.05;;;;;;;;;;5085091;28;20076;-71
2022/06/04 07:46:54;;;;;;;3.63;2.30;;;;;;;;;;5089365;28;20127;-73
2022/06/04 07:49:20;;;;;;;5.32;2.35;;;;;;;;;;5085355;28;20156;-71
2022/06/04 07:51:46;;;;;;;3.42;2.30;;;;;;;;;;5086018;28;20460;-72
2022/06/04 07:54:12;;;;;;;5.88;2.40;;;;;;;;;;5088983;28;20038;-71
2022/06/04 07:56:38;;;;;;;4.35;2.38;;;;;;;;;;5090470;28;20061;-73
2022/06/04 07:59:04;;;;;;;3.42;2.08;;;;;;;;;;5099179;28;20032;-71
2022/06/04 08:01:30;;;;;;;2.33;2.20;;;;;;;;;;5087932;28;20117;-70
2022/06/04 08:03:56;;;;;;;2.30;2.20;;;;;;;;;;5078334;28;20040;-71
2022/06/04 08:06:22;;;;;;;2.33;2.22;;;;;;;;;;5069945;28;20040;-70
2022/06/04 08:08:50;;;;;;;1.92;1.83;;;;;;;;;;5072306;28;20032;-71
2022/06/04 08:11:31;;;;;;;6.25;3.08;;;;;;;;;;5088513;28;20052;-72
2022/06/04 08:13:59;;;;;;;2.28;2.17;;;;;;;;;;5090635;28;20108;-72
2022/06/04 08:16:25;;;;;;;4.22;2.47;;;;;;;;;;5091958;28;20048;-71
2022/06/04 08:18:51;;;;;;;2.13;2.03;;;;;;;;;;5091801;28;20036;-72
2022/06/04 08:21:17;;;;;;;4.60;2.20;;;;;;;;;;5092138;28;20044;-72
2022/06/04 08:23:44;;;;;;;2.08;1.90;;;;;;;;;;5091775;28;20055;-71
2022/06/04 08:26:10;;;;;;;2.20;1.85;;;;;;;;;;5092056;28;20425;-69
2022/06/04 08:28:36;;;;;;;3.28;2.40;;;;;;;;;;5090495;28;20045;-71
2022/06/04 08:31:04;;;;;;;3.60;2.00;;;;;;;;;;5090952;28;20591;-71
2022/06/04 08:33:30;;;;;;;4.03;2.10;;;;;;;;;;5091504;28;20036;-70
2022/06/04 08:35:56;;;;;;;2.40;2.15;;;;;;;;;;5089960;28;20179;-71
2022/06/04 08:38:23;;;;;;;2.47;2.28;;;;;;;;;;5091343;28;20036;-71
2022/06/04 08:40:50;;;;;;;2.05;1.90;;;;;;;;;;5089182;28;20040;-71
2022/06/04 08:43:20;;;;;;;2.55;2.00;;;;;;;;;;5091306;28;20104;-71
2022/06/04 08:45:46;;;;;;;;;;;;;;;;;;5090692;28;20040;-71
2022/06/04 08:48:16;;;;;;;3.22;2.38;;;;;;;;;;5090465;28;20291;-72
2022/06/04 08:50:42;;;;;;;3.30;2.20;;;;;;;;;;5090053;28;20141;-72
2022/06/04 08:53:19;;;;;;;4.93;2.30;;;;;;;;;;5090239;28;20044;-70
2022/06/04 08:58:53;;;;;;;3.20;1.95;;;;;;;;;;5089689;28;20373;-71
2022/06/04 09:01:19;;;;;;;3.05;1.92;;;;;;;;;;5090069;28;20520;-72
2022/06/04 09:03:50;;;;;;;1.70;1.65;;;;;;;;;;5091075;28;20040;-72
2022/06/04 09:06:22;;;;;;;1.73;1.63;;;;;;;;;;5091190;28;20046;-72
2022/06/04 09:08:58;;;;;;;5.53;2.08;;;;;;;;;;5090946;28;20036;-71
2022/06/04 09:11:29;;;;;;;2.35;2.10;;;;;;;;;;5089716;28;20052;-72
2022/06/04 09:14:14;;;;;;;12.88;1.90;;;;;;;;;;5072673;28;20553;-70
2022/06/04 09:16:40;;;;;;;2.13;2.03;;;;;;;;;;5090780;28;20432;-71
2022/06/04 09:19:11;;;;;;;2.22;2.03;;;;;;;;;;5072822;28;20078;-71
2022/06/04 09:21:37;;;;;;;2.55;1.80;;;;;;;;;;5089399;28;20427;-71
2022/06/04 09:24:04;;;;;;;2.38;2.10;;;;;;;;;;5089286;28;20040;-71
2022/06/04 09:26:47;;;;;;;1.90;1.80;;;;;;;;;;5089510;28;20201;-71
2022/06/04 09:29:21;;;;;;;8.55;2.03;;;;;;;;;;5072551;28;20136;-72
2022/06/04 09:31:50;;;;;;;4.75;2.10;;;;;;;;;;5089338;28;20043;-71
2022/06/04 09:34:20;;;;;;;3.75;2.00;;;;;;;;;;5090407;28;20048;-71
2022/06/04 09:36:46;;;;;;;2.20;2.03;;;;;;;;;;5090224;28;20055;-70
2022/06/04 09:39:26;;;;;;;2.70;2.10;;;;;;;;;;5090228;28;20043;-70
2022/06/04 09:42:02;;;;;;;3.95;2.80;;;;;;;;;;5090095;28;20478;-71
2022/06/04 09:44:29;;;;;;;7.32;2.10;;;;;;;;;;5088982;28;20039;-72
2022/06/04 09:46:58;;;;;;;3.42;2.08;;;;;;;;;;5090085;28;20036;-70
2022/06/04 09:49:24;;;;;;;2.53;1.73;;;;;;;;;;5089770;28;20036;-70
2022/06/04 09:51:50;;;;;;;2.70;1.80;;;;;;;;;;5088867;28;20071;-71
2022/06/04 09:54:24;;;;;;;2.22;2.13;;;;;;;;;;5090214;28;20092;-71
2022/06/04 09:56:51;;;;;;;2.03;1.70;;;;;;;;;;5089928;28;20463;-72
2022/06/04 09:59:18;;;;;;;4.82;2.33;;;;;;;;;;5091085;28;20531;-71
2022/06/04 10:01:54;;;;;;;2.00;1.90;;;;;;;;;;5088754;28;20044;-72
2022/06/04 10:04:20;;;;;;;2.13;2.03;;;;;;;;;;5088781;28;20193;-70
2022/06/04 10:06:46;;;;;;;2.25;2.10;;;;;;;;;;5089987;28;20039;-71
2022/06/04 10:12:03;;;;;;;1.58;1.58;;;;;;;;;;5088688;28;20092;-71
2022/06/04 10:14:29;;;;;;;2.30;2.10;;;;;;;;;;5072043;28;20042;-70
2022/06/04 10:16:55;;;;;;;8.20;1.92;;;;;;;;;;5088160;28;20152;-71
2022/06/04 10:19:22;;;;;;;1.55;1.52;;;;;;;;;;5089681;28;20448;-71
2022/06/04 10:22:08;;;;;;;2.33;2.22;;;;;;;;;;5089525;28;20036;-71
2022/06/04 10:24:35;;;;;;;3.83;2.03;;;;;;;;;;5057769;28;20364;-71
2022/06/04 10:27:04;;;;;;;1.90;1.80;;;;;;;;;;5088818;28;20048;-71
2022/06/04 10:29:49;;;;;;;3.95;2.17;;;;;;;;;;5089856;28;20032;-71
2022/06/04 10:32:23;;;;;;;5.45;2.22;;;;;;;;;;5089842;28;20130;-71
2022/06/04 10:34:50;;;;;;;3.47;2.10;;;;;;;;;;5089471;28;20500;-71
2022/06/04 10:37:30;;;;;;;4.50;2.13;;;;;;;;;;5089763;28;20059;-70
2022/06/04 10:40:04;;;;;;;2.60;1.95;;;;;;;;;;5088287;28;20047;-71
2022/06/04 10:42:37;;;;;;;2.45;1.73;;;;;;;;;;5088579;28;20040;-71
2022/06/04 10:45:09;;;;;;;3.55;1.83;;;;;;;;;;5088436;28;20100;-71
2022/06/04 10:47:35;;;;;;;2.28;1.85;;;;;;;;;;5089519;28;20044;-71
2022/06/04 10:50:06;;;;;;;4.30;2.55;;;;;;;;;;5089285;28;20068;-71
2022/06/04 10:52:31;;;;;;;;;;;;;;;;;;5089298;28;20518;-71
2022/06/04 10:55:05;;;;;;;2.70;2.17;;;;;;;;;;5089082;28;19956;-72
2022/06/04 10:57:32;;;;;;;2.10;2.00;;;;;;;;;;5088037;28;20067;-71
2022/06/04 11:00:18;;;;;;;3.38;2.33;;;;;;;;;;5089078;28;20051;-71
2022/06/04 11:02:48;;;;;;;2.50;2.30;;;;;;;;;;5089224;28;20086;-71
2022/06/04 11:05:14;;;;;;;5.82;2.33;;;;;;;;;;5087885;28;20040;-72
2022/06/04 11:07:40;;;;;;;2.00;1.90;;;;;;;;;;5088875;28;20036;-72
2022/06/04 11:10:07;;;;;;;1.83;1.73;;;;;;;;;;5089136;28;20208;-72
2022/06/04 23:21:00;;;;;;;26.20;17.88;;;;;;;;;;5093348;28;20047;-69
2022/06/04 23:23:27;;;;;;;32.25;17.77;;;;;;;;;;5093099;28;20542;-70
2022/06/04 23:26:02;;;;;;;29.02;17.30;;;;;;;;;;5093486;28;20043;-70
2022/06/04 23:28:33;;;;;;;29.13;16.52;;;;;;;;;;5093070;28;20303;-70
2022/06/04 23:30:59;;;;;;;25.45;16.33;;;;;;;;;;5093301;28;20046;-70
2022/06/04 23:33:26;;;;;;;25.05;16.27;;;;;;;;;;5074907;28;20553;-70
2022/06/04 23:35:51;;;;;;;25.48;16.17;;;;;;;;;;5075190;28;20036;-71
2022/06/04 23:38:18;;;;;;;30.70;17.05;;;;;;;;;;5092897;28;20108;-69
2022/06/04 23:40:44;;;;;;;35.47;16.20;;;;;;;;;;5074705;28;20055;-70
2022/06/04 23:43:11;;;;;;;26.20;15.70;;;;;;;;;;5074829;28;20519;-71
2022/06/04 23:45:37;;;;;;;22.52;16.27;;;;;;;;;;5092884;28;20036;-69
2022/06/04 23:48:03;;;;;;;24.35;15.57;;;;;;;;;;5074732;28;20074;-70
2022/06/04 23:50:29;;;;;;;30.65;14.93;;;;;;;;;;5092706;28;20123;-70
2022/06/04 23:52:56;;;;;;;25.13;15.20;;;;;;;;;;5092699;28;20059;-71
2022/06/04 23:55:21;;;;;;;28.83;15.65;;;;;;;;;;5092745;28;20047;-70
2022/06/04 23:57:48;;;;;;;26.33;15.20;;;;;;;;;;5074259;28;20060;-71
